Search for airport 
image banner adimage banner adimage banner ad
image banner ad

DTTA - Tunis/Carthage

Located in Tunis, Tunisia

ICAO - DTTA, IATA - TUN

Data provided by Airmate  

General information

Coordinates: N36°51'4" E10°13'37"
Elevation is 21 feet MSL.
 
View others Airports in Tunis Governorate

Operational data

Special qualification required
Current time UTC:
Current local time:
Weather
METAR: DTTA 260830Z 14004KT 060V210 9999 SCT026 30/22 Q1019
TAF: TAF DTTA 260500Z 2606/2706 13006KT 9999 SCT040 BECMG 2613/2615 05010KT BECMG 2621/2623 35006KT
View NOTAMs / SUP AIP / TFR affecting this airport [VIEW]
Communications frequencies: [VIEW]

Runways:

RWY identifierQFULength (ft)Width (ft)SurfaceLDA (ft)
11112°9350148
29292°9350148
0112°10499148ASP
19192°10499148

Airport contact information

Address: Tunis Tunisia

Satellite view of DTTA